Cheyenne Regional Jerry Olson Field Cheyenne US
ICAO: KCYS
IATA: CYS
Category: Medium
Scheduled Services: Yes

Elevation: 6159 ft
TransAlt. 18000 ft.

Airport Communications:
APP/DEP:124.55
ATIS:134.425
CTAF:118.7
GND:121.9
ARNG OPS:126.2
ANG OPS/COMD POST:22.552
CASPER RDO:122.3
TWR:118.7
UNICOM:122.95

KCYS Zoom In..

Runways:

(A) RW 09 length 9270 ft width 150 ft
---- / hdg 85

(B) RW 13 length 6690 ft width 150 ft
---- / hdg 125

(C) RW 27 length 9270 ft width 150 ft
ILS 110.10 / hdg 265

(D) RW 31 length 6690 ft width 150 ft
---- / hdg 305

Location; KCYS
Day. 30 / Time. 22.53 Zulu
* Altimeter: 30.02
* Temperature: 09° c. 48.2°f.
* Wind from: 260° Speed 21 kn with Gusts up to 29 kn.
Dewpoint: -21° c.
Visibility: 10 Statute Miles.
Clouds: Clear (automated report).

KCYS 302253Z 26021G29KT 10SM CLR 09/M21 A3002 RMK AO2 PK WND 28029/2154 SLP171 T00891206

Going to: --> -->


Wind From 260°
Speed 21 kn.

 
 
jpsmedia worldairports.se 2020   terms of use